PWSweather.com
Personal Weather Stations
Station Observations

MakarauRodneyNZ

Lat: -36.52421, Lon: 174.47572

Elevation: 606

Station Type: Davis VP2

http://kaiparaweather.dynu.net/index.php

Latest ConditionsUpdated 7:50:01 PM GMT+12:12 Thursday, Jul 18, 2019
Currently Today's Max Today's Min Today's Average
Temperature 52.5°F11.4°C 60.4°F15.8°C 49.7°F9.8°C 54.5°F12.5°C
Dew Point 52.5°F11.4°C 57.9°F14.4°C 49.7°F9.8°C 53.4°F11.9°C
Winds Calm Calm 12.7 mph -20.4 kmh - - 2.6 mph 4.2 kmh
Wind Gusts -- 13.8 mph22.2 kmh - -
Humidity 100% 100% 90% 96%
Pressure 29.80 in1009.1 mb 29.83 in1010.2 mb 29.69 in1005.4 mb -
Precipitation - 0.01 in0.3 mm - -
Hour Temp Dew Point Humidity Winds Wind Gusts Pressure Precip Precip Rate Daily Precip Total
07:50 PM 52.5°F11.4°C 52.5°F11.4°C 100% Calm Calm -- 29.80 in1009.1 mb - 0.00 in0.0 mm 0.01 in0.3 mm
07:40 PM 52.8°F11.6°C 52.5°F11.4°C 99% Calm Calm -- 29.80 in1009.1 mb - 0.00 in0.0 mm 0.01 in0.3 mm
07:30 PM 53.2°F11.8°C 52.9°F11.6°C 99% Calm Calm -- 29.80 in1009.1 mb - 0.00 in0.0 mm 0.01 in0.3 mm
07:20 PM 53.6°F12.0°C 53.3°F11.8°C 99% Calm Calm -- 29.80 in1009.1 mb - 0.00 in0.0 mm 0.01 in0.3 mm
07:10 PM 54.0°F12.2°C 53.7°F12.1°C 99% Calm Calm -- 29.80 in1009.1 mb - 0.00 in0.0 mm 0.01 in0.3 mm
07:00 PM 54.3°F12.4°C 54.1°F12.3°C 99% Calm Calm -- 29.80 in1009.1 mb - 0.00 in0.0 mm 0.01 in0.3 mm
06:50 PM 54.5°F12.5°C 54.3°F12.4°C 99% Calm Calm -- 29.80 in1009.1 mb - 0.00 in0.0 mm 0.01 in0.3 mm
06:40 PM 54.7°F12.6°C 54.1°F12.3°C 98% Calm Calm -- 29.80 in1009.1 mb - 0.00 in0.0 mm 0.01 in0.3 mm
06:30 PM 54.9°F12.7°C 54.3°F12.4°C 98% Calm Calm -- 29.80 in1009.1 mb - 0.00 in0.0 mm 0.01 in0.3 mm
06:20 PM 55.0°F12.8°C 54.4°F12.4°C 98% Calm Calm -- 29.80 in1009.1 mb - 0.00 in0.0 mm 0.01 in0.3 mm
06:10 PM 55.4°F13.0°C 54.8°F12.7°C 98% Calm Calm -- 29.80 in1009.1 mb - 0.00 in0.0 mm 0.01 in0.3 mm
06:00 PM 55.7°F13.2°C 55.1°F12.8°C 98% Calm Calm -- 29.80 in1009.1 mb - 0.00 in0.0 mm 0.01 in0.3 mm
05:50 PM 55.9°F13.3°C 55.3°F12.9°C 98% Calm Calm -- 29.80 in1009.1 mb - 0.00 in0.0 mm 0.01 in0.3 mm
05:40 PM 56.1°F13.4°C 55.6°F13.1°C 98% Calm Calm -- 29.80 in1009.1 mb - 0.00 in0.0 mm 0.01 in0.3 mm
05:30 PM 56.3°F13.5°C 55.7°F13.2°C 98% Calm Calm -- 29.79 in1008.8 mb - 0.00 in0.0 mm 0.01 in0.3 mm
05:20 PM 56.5°F13.6°C 56.0°F13.3°C 98% Calm Calm -- 29.79 in1008.8 mb - 0.00 in0.0 mm 0.01 in0.3 mm
05:10 PM 56.7°F13.7°C 55.8°F13.2°C 97% Calm Calm -- 29.79 in1008.8 mb - 0.00 in0.0 mm 0.01 in0.3 mm
05:00 PM 57.0°F13.9°C 56.1°F13.4°C 97% Calm Calm -- 29.79 in1008.8 mb - 0.00 in0.0 mm 0.01 in0.3 mm
04:50 PM 57.4°F14.1°C 56.3°F13.5°C 96% Calm Calm -- 29.79 in1008.8 mb - 0.00 in0.0 mm 0.01 in0.3 mm
04:40 PM 57.8°F14.3°C 56.7°F13.7°C 96% Calm Calm -- 29.79 in1008.8 mb - 0.00 in0.0 mm 0.01 in0.3 mm
04:30 PM 58.1°F14.5°C 57.0°F13.9°C 96% Calm Calm -- 29.79 in1008.8 mb - 0.00 in0.0 mm 0.01 in0.3 mm
04:20 PM 58.4°F14.7°C 57.0°F13.9°C 95% Calm Calm 5.8 mph9.3 kmh 29.79 in1008.8 mb - 0.00 in0.0 mm 0.01 in0.3 mm
04:10 PM 58.7°F14.8°C 57.3°F14.1°C 95% Calm Calm -- 29.79 in1008.8 mb - 0.00 in0.0 mm 0.01 in0.3 mm
04:00 PM 58.8°F14.9°C 57.3°F14.1°C 95% Calm Calm -- 29.78 in1008.5 mb - 0.00 in0.0 mm 0.01 in0.3 mm
03:50 PM 58.9°F14.9°C 57.2°F14.0°C 94% Calm Calm -- 29.79 in1008.8 mb - 0.00 in0.0 mm 0.01 in0.3 mm
03:40 PM 59.2°F15.1°C 57.1°F13.9°C 93% Calm Calm 1.2 mph1.9 kmh 29.78 in1008.5 mb - 0.00 in0.0 mm 0.01 in0.3 mm
03:30 PM 59.4°F15.2°C 57.4°F14.1°C 93% Calm Calm -- 29.78 in1008.5 mb - 0.00 in0.0 mm 0.01 in0.3 mm
03:20 PM 59.5°F15.3°C 57.8°F14.3°C 94% Calm Calm 3.5 mph5.6 kmh 29.78 in1008.5 mb - 0.00 in0.0 mm 0.01 in0.3 mm
03:10 PM 59.0°F15.0°C 57.0°F13.9°C 93% Calm Calm -- 29.78 in1008.5 mb - 0.00 in0.0 mm 0.01 in0.3 mm
03:00 PM 59.2°F15.1°C 56.6°F13.7°C 91% 1.2 mph WSW1.9 kmh WSW 3.5 mph5.6 kmh 29.78 in1008.5 mb - 0.00 in0.0 mm 0.01 in0.3 mm
02:50 PM 60.0°F15.6°C 57.1°F13.9°C 90% 1.2 mph NNW1.9 kmh NNW 8.1 mph13.0 kmh 29.78 in1008.5 mb - 0.00 in0.0 mm 0.01 in0.3 mm
02:40 PM 60.0°F15.6°C 57.7°F14.3°C 92% 3.5 mph NW5.6 kmh NW 10.4 mph16.7 kmh 29.79 in1008.8 mb - 0.00 in0.0 mm 0.01 in0.3 mm
02:30 PM 59.8°F15.4°C 57.2°F14.0°C 91% 1.2 mph NW1.9 kmh NW 3.5 mph5.6 kmh 29.78 in1008.5 mb - 0.00 in0.0 mm 0.01 in0.3 mm
02:20 PM 59.9°F15.5°C 57.3°F14.1°C 91% 1.2 mph NNW1.9 kmh NNW 8.1 mph13.0 kmh 29.78 in1008.5 mb - 0.00 in0.0 mm 0.01 in0.3 mm
02:10 PM 59.7°F15.4°C 57.1°F13.9°C 91% 1.2 mph W1.9 kmh W 3.5 mph5.6 kmh 29.78 in1008.5 mb - 0.00 in0.0 mm 0.01 in0.3 mm
02:00 PM 59.5°F15.3°C 56.6°F13.7°C 90% 1.2 mph NNW1.9 kmh NNW 3.5 mph5.6 kmh 29.78 in1008.5 mb - 0.00 in0.0 mm 0.01 in0.3 mm
01:50 PM 59.7°F15.4°C 57.1°F13.9°C 91% 2.3 mph NNW3.7 kmh NNW 5.8 mph9.3 kmh 29.79 in1008.8 mb - 0.00 in0.0 mm 0.01 in0.3 mm
01:40 PM 60.0°F15.6°C 57.7°F14.3°C 92% 3.5 mph NNW5.6 kmh NNW 9.2 mph14.8 kmh 29.79 in1008.8 mb - 0.00 in0.0 mm 0.01 in0.3 mm
01:30 PM 60.0°F15.6°C 57.9°F14.4°C 93% Calm Calm 3.5 mph5.6 kmh 29.79 in1008.8 mb - 0.00 in0.0 mm 0.01 in0.3 mm
01:20 PM 60.1°F15.6°C 57.8°F14.3°C 92% 2.3 mph NE3.7 kmh NE 3.5 mph5.6 kmh 29.79 in1008.8 mb - 0.00 in0.0 mm 0.01 in0.3 mm
01:10 PM 60.2°F15.7°C 57.6°F14.2°C 91% 1.2 mph NW1.9 kmh NW 3.5 mph5.6 kmh 29.79 in1008.8 mb - 0.00 in0.0 mm 0.01 in0.3 mm
01:00 PM 60.4°F15.8°C 57.4°F14.1°C 90% 2.3 mph NNW3.7 kmh NNW 5.8 mph9.3 kmh 29.79 in1008.8 mb - 0.00 in0.0 mm 0.01 in0.3 mm
12:50 PM 60.4°F15.8°C 57.7°F14.3°C 91% 3.5 mph NNW5.6 kmh NNW 9.2 mph14.8 kmh 29.79 in1008.8 mb - 0.00 in0.0 mm 0.01 in0.3 mm
12:40 PM 59.9°F15.5°C 57.0°F13.9°C 90% 1.2 mph NW1.9 kmh NW 8.1 mph13.0 kmh 29.79 in1008.8 mb - 0.00 in0.0 mm 0.01 in0.3 mm
12:30 PM 59.5°F15.3°C 57.1°F13.9°C 92% 1.2 mph NNW1.9 kmh NNW 6.9 mph11.1 kmh 29.80 in1009.1 mb - 0.00 in0.0 mm 0.01 in0.3 mm
12:20 PM 59.4°F15.2°C 56.8°F13.8°C 91% 3.5 mph NW5.6 kmh NW 12.7 mph20.4 kmh 29.80 in1009.1 mb - 0.00 in0.0 mm 0.01 in0.3 mm
12:10 PM 59.2°F15.1°C 57.2°F14.0°C 93% 4.6 mph W7.4 kmh W 8.1 mph13.0 kmh 29.81 in1009.5 mb - 0.00 in0.0 mm 0.01 in0.3 mm
12:00 PM 59.0°F15.0°C 57.3°F14.1°C 94% 2.3 mph N3.7 kmh N 8.1 mph13.0 kmh 29.81 in1009.5 mb - 0.00 in0.0 mm 0.01 in0.3 mm
11:50 AM 58.8°F14.9°C 56.8°F13.8°C 93% 1.2 mph W1.9 kmh W 3.5 mph5.6 kmh 29.82 in1009.8 mb - 0.00 in0.0 mm 0.01 in0.3 mm
11:40 AM 58.4°F14.7°C 56.4°F13.6°C 93% 5.8 mph NNW9.3 kmh NNW 10.4 mph16.7 kmh 29.82 in1009.8 mb - 0.00 in0.0 mm 0.01 in0.3 mm
11:30 AM 58.0°F14.4°C 56.2°F13.4°C 94% 2.3 mph N3.7 kmh N 5.8 mph9.3 kmh 29.82 in1009.8 mb - 0.00 in0.0 mm 0.01 in0.3 mm
11:20 AM 57.9°F14.4°C 56.2°F13.4°C 94% 2.3 mph WNW3.7 kmh WNW 5.8 mph9.3 kmh 29.82 in1009.8 mb - 0.00 in0.0 mm 0.01 in0.3 mm
11:10 AM 58.2°F14.6°C 56.8°F13.8°C 95% 4.6 mph NNW7.4 kmh NNW 8.1 mph13.0 kmh 29.83 in1010.2 mb - 0.00 in0.0 mm 0.01 in0.3 mm
11:00 AM 57.9°F14.4°C 56.5°F13.6°C 95% 2.3 mph NW3.7 kmh NW 3.5 mph5.6 kmh 29.83 in1010.2 mb - 0.00 in0.0 mm 0.01 in0.3 mm
10:50 AM 57.6°F14.2°C 56.2°F13.4°C 95% 3.5 mph NW5.6 kmh NW 5.8 mph9.3 kmh 29.83 in1010.2 mb - 0.00 in0.0 mm 0.01 in0.3 mm
10:40 AM 56.8°F13.8°C 55.7°F13.2°C 96% Calm Calm 3.5 mph5.6 kmh 29.83 in1010.2 mb - 0.00 in0.0 mm 0.01 in0.3 mm
10:30 AM 56.5°F13.6°C 55.3°F12.9°C 96% 1.2 mph WSW1.9 kmh WSW 3.5 mph5.6 kmh 29.83 in1010.2 mb - 0.00 in0.0 mm 0.01 in0.3 mm
10:20 AM 57.0°F13.9°C 55.6°F13.1°C 95% Calm Calm -- 29.83 in1010.2 mb - 0.00 in0.0 mm 0.01 in0.3 mm
10:10 AM 56.7°F13.7°C 55.3°F12.9°C 95% 1.2 mph N1.9 kmh N 2.3 mph3.7 kmh 29.83 in1010.2 mb - 0.00 in0.0 mm 0.01 in0.3 mm
10:00 AM 55.9°F13.3°C 54.5°F12.5°C 95% Calm Calm -- 29.83 in1010.2 mb - 0.00 in0.0 mm 0.01 in0.3 mm
09:50 AM 55.4°F13.0°C 53.8°F12.1°C 94% Calm Calm -- 29.83 in1010.2 mb - 0.00 in0.0 mm 0.01 in0.3 mm
09:40 AM 54.6°F12.6°C 51.7°F10.9°C 90% Calm Calm -- 29.83 in1010.2 mb - 0.00 in0.0 mm 0.01 in0.3 mm
09:30 AM 53.2°F11.8°C 50.9°F10.5°C 92% Calm Calm -- 29.83 in1010.2 mb - 0.01 in0.3 mm 0.01 in0.3 mm
09:20 AM 51.8°F11.0°C 51.2°F10.7°C 98% Calm Calm -- 29.82 in1009.8 mb - 0.00 in0.0 mm 0.01 in0.3 mm
09:10 AM 51.2°F10.7°C 50.6°F10.3°C 98% Calm Calm -- 29.82 in1009.8 mb - 0.00 in0.0 mm 0.01 in0.3 mm
09:00 AM 51.0°F10.6°C 50.8°F10.4°C 99% Calm Calm -- 29.82 in1009.8 mb - 0.00 in0.0 mm 0.01 in0.3 mm
08:50 AM 50.7°F10.4°C 50.7°F10.4°C 100% Calm Calm -- 29.82 in1009.8 mb - 0.00 in0.0 mm 0.01 in0.3 mm
08:40 AM 50.6°F10.3°C 50.6°F10.3°C 100% Calm Calm -- 29.81 in1009.5 mb - 0.00 in0.0 mm 0.01 in0.3 mm
08:30 AM 50.7°F10.4°C 50.7°F10.4°C 100% Calm Calm -- 29.80 in1009.1 mb - 0.00 in0.0 mm 0.01 in0.3 mm
08:20 AM 50.6°F10.3°C 50.6°F10.3°C 100% Calm Calm -- 29.80 in1009.1 mb - 0.00 in0.0 mm 0.01 in0.3 mm
08:10 AM 50.4°F10.2°C 50.4°F10.2°C 100% Calm Calm -- 29.80 in1009.1 mb - 0.00 in0.0 mm 0.01 in0.3 mm
08:00 AM 50.3°F10.2°C 50.3°F10.2°C 100% Calm Calm -- 29.80 in1009.1 mb - 0.00 in0.0 mm 0.01 in0.3 mm
07:50 AM 50.2°F10.1°C 50.2°F10.1°C 100% Calm Calm -- 29.80 in1009.1 mb - 0.00 in0.0 mm 0.01 in0.3 mm
07:40 AM 50.0°F10.0°C 50.0°F10.0°C 100% Calm Calm -- 29.79 in1008.8 mb - 0.00 in0.0 mm 0.01 in0.3 mm
07:30 AM 50.1°F10.1°C 50.1°F10.1°C 100% Calm Calm -- 29.79 in1008.8 mb - 0.00 in0.0 mm 0.01 in0.3 mm
07:20 AM 50.3°F10.2°C 50.3°F10.2°C 100% Calm Calm -- 29.79 in1008.8 mb - 0.00 in0.0 mm 0.01 in0.3 mm
07:10 AM 50.4°F10.2°C 50.4°F10.2°C 100% 3.5 mph NNW5.6 kmh NNW 3.5 mph5.6 kmh 29.78 in1008.5 mb - 0.00 in0.0 mm 0.01 in0.3 mm
07:00 AM 50.5°F10.3°C 50.5°F10.3°C 100% 4.6 mph NW7.4 kmh NW 9.2 mph14.8 kmh 29.78 in1008.5 mb - 0.00 in0.0 mm 0.01 in0.3 mm
06:50 AM 49.7°F9.8°C 49.7°F9.8°C 100% Calm Calm -- 29.77 in1008.1 mb - 0.00 in0.0 mm 0.01 in0.3 mm
06:40 AM 49.8°F9.9°C 49.8°F9.9°C 100% Calm Calm -- 29.77 in1008.1 mb - 0.00 in0.0 mm 0.01 in0.3 mm
06:30 AM 50.0°F10.0°C 50.0°F10.0°C 100% 1.2 mph WSW1.9 kmh WSW -- 29.77 in1008.1 mb - 0.00 in0.0 mm 0.01 in0.3 mm
06:20 AM 50.5°F10.3°C 50.5°F10.3°C 100% 3.5 mph NW5.6 kmh NW 3.5 mph5.6 kmh 29.76 in1007.8 mb - 0.00 in0.0 mm 0.01 in0.3 mm
06:10 AM 50.9°F10.5°C 50.9°F10.5°C 100% 3.5 mph WNW5.6 kmh WNW 5.8 mph9.3 kmh 29.76 in1007.8 mb - 0.00 in0.0 mm 0.01 in0.3 mm
06:00 AM 50.9°F10.5°C 50.9°F10.5°C 100% 9.2 mph WNW14.8 kmh WNW 11.5 mph18.5 kmh 29.76 in1007.8 mb - 0.00 in0.0 mm 0.01 in0.3 mm
05:50 AM 50.8°F10.4°C 50.8°F10.4°C 100% 10.4 mph WSW16.7 kmh WSW 11.5 mph18.5 kmh 29.75 in1007.5 mb - 0.00 in0.0 mm 0.01 in0.3 mm
05:40 AM 50.5°F10.3°C 50.5°F10.3°C 100% 3.5 mph WSW5.6 kmh WSW 5.8 mph9.3 kmh 29.75 in1007.5 mb - 0.00 in0.0 mm 0.01 in0.3 mm
05:30 AM 50.3°F10.2°C 50.3°F10.2°C 100% 5.8 mph WSW9.3 kmh WSW 5.8 mph9.3 kmh 29.74 in1007.1 mb - 0.00 in0.0 mm 0.01 in0.3 mm
05:20 AM 50.2°F10.1°C 50.2°F10.1°C 100% 5.8 mph W9.3 kmh W 5.8 mph9.3 kmh 29.74 in1007.1 mb - 0.00 in0.0 mm 0.01 in0.3 mm
05:10 AM 50.2°F10.1°C 50.2°F10.1°C 100% 6.9 mph NW11.1 kmh NW 8.1 mph13.0 kmh 29.74 in1007.1 mb - 0.00 in0.0 mm 0.01 in0.3 mm
05:00 AM 50.1°F10.1°C 49.8°F9.9°C 99% 6.9 mph N11.1 kmh N 8.1 mph13.0 kmh 29.73 in1006.8 mb - 0.00 in0.0 mm 0.01 in0.3 mm
04:50 AM 50.3°F10.2°C 50.0°F10.0°C 99% 6.9 mph WNW11.1 kmh WNW 9.2 mph14.8 kmh 29.73 in1006.8 mb - 0.00 in0.0 mm 0.01 in0.3 mm
04:40 AM 50.5°F10.3°C 50.5°F10.3°C 100% 4.6 mph WSW7.4 kmh WSW 9.2 mph14.8 kmh 29.73 in1006.8 mb - 0.00 in0.0 mm 0.01 in0.3 mm
04:30 AM 50.6°F10.3°C 50.3°F10.2°C 99% 5.8 mph W9.3 kmh W 9.2 mph14.8 kmh 29.73 in1006.8 mb - 0.00 in0.0 mm 0.01 in0.3 mm
04:20 AM 51.0°F10.6°C 50.7°F10.4°C 99% 3.5 mph WSW5.6 kmh WSW 5.8 mph9.3 kmh 29.72 in1006.4 mb - 0.00 in0.0 mm 0.01 in0.3 mm
04:10 AM 51.6°F10.9°C 51.0°F10.6°C 98% 12.7 mph NW20.4 kmh NW 12.7 mph20.4 kmh 29.72 in1006.4 mb - 0.00 in0.0 mm 0.01 in0.3 mm
04:00 AM 51.4°F10.8°C 50.6°F10.3°C 97% 2.3 mph WSW3.7 kmh WSW 3.5 mph5.6 kmh 29.72 in1006.4 mb - 0.00 in0.0 mm 0.01 in0.3 mm
03:50 AM 51.6°F10.9°C 50.8°F10.4°C 97% 3.5 mph W5.6 kmh W 5.8 mph9.3 kmh 29.72 in1006.4 mb - 0.00 in0.0 mm 0.01 in0.3 mm
03:40 AM 51.6°F10.9°C 50.7°F10.4°C 97% 8.1 mph NW13.0 kmh NW 11.5 mph18.5 kmh 29.72 in1006.4 mb - 0.00 in0.0 mm 0.01 in0.3 mm
03:30 AM 51.3°F10.7°C 50.5°F10.3°C 97% 6.9 mph WNW11.1 kmh WNW 9.2 mph14.8 kmh 29.72 in1006.4 mb - 0.00 in0.0 mm 0.01 in0.3 mm
03:20 AM 51.5°F10.8°C 50.6°F10.3°C 97% 4.6 mph WSW7.4 kmh WSW 8.1 mph13.0 kmh 29.72 in1006.4 mb - 0.00 in0.0 mm 0.01 in0.3 mm
03:10 AM 51.8°F11.0°C 50.7°F10.4°C 96% 6.9 mph WSW11.1 kmh WSW 11.5 mph18.5 kmh 29.71 in1006.1 mb - 0.00 in0.0 mm 0.01 in0.3 mm
03:00 AM 51.5°F10.8°C 50.4°F10.2°C 96% 4.6 mph WSW7.4 kmh WSW 6.9 mph11.1 kmh 29.71 in1006.1 mb - 0.00 in0.0 mm 0.01 in0.3 mm
02:50 AM 51.4°F10.8°C 50.3°F10.2°C 96% 6.9 mph WSW11.1 kmh WSW 8.1 mph13.0 kmh 29.71 in1006.1 mb - 0.00 in0.0 mm 0.01 in0.3 mm
02:40 AM 51.3°F10.7°C 50.5°F10.3°C 97% 6.9 mph WSW11.1 kmh WSW 10.4 mph16.7 kmh 29.71 in1006.1 mb - 0.00 in0.0 mm 0.01 in0.3 mm
02:30 AM 51.2°F10.7°C 50.3°F10.2°C 97% 6.9 mph WNW11.1 kmh WNW 11.5 mph18.5 kmh 29.71 in1006.1 mb - 0.00 in0.0 mm 0.01 in0.3 mm
02:20 AM 51.0°F10.6°C 50.2°F10.1°C 97% 8.1 mph WNW13.0 kmh WNW 10.4 mph16.7 kmh 29.72 in1006.4 mb - 0.00 in0.0 mm 0.01 in0.3 mm
02:10 AM 51.1°F10.6°C 50.0°F10.0°C 96% 8.1 mph WNW13.0 kmh WNW 10.4 mph16.7 kmh 29.72 in1006.4 mb - 0.00 in0.0 mm 0.01 in0.3 mm
02:00 AM 51.5°F10.8°C 50.4°F10.2°C 96% 8.1 mph W13.0 kmh W 11.5 mph18.5 kmh 29.72 in1006.4 mb - 0.00 in0.0 mm 0.01 in0.3 mm
01:50 AM 51.8°F11.0°C 50.4°F10.2°C 95% 6.9 mph WSW11.1 kmh WSW 9.2 mph14.8 kmh 29.71 in1006.1 mb - 0.00 in0.0 mm 0.01 in0.3 mm
01:40 AM 51.8°F11.0°C 50.1°F10.1°C 94% 8.1 mph WSW13.0 kmh WSW 11.5 mph18.5 kmh 29.70 in1005.8 mb - 0.00 in0.0 mm 0.01 in0.3 mm
01:30 AM 51.5°F10.8°C 50.1°F10.1°C 95% 9.2 mph WSW14.8 kmh WSW 11.5 mph18.5 kmh 29.70 in1005.8 mb - 0.00 in0.0 mm 0.01 in0.3 mm
01:20 AM 50.9°F10.5°C 49.8°F9.9°C 96% 9.2 mph WSW14.8 kmh WSW 13.8 mph22.2 kmh 29.70 in1005.8 mb - 0.00 in0.0 mm 0.01 in0.3 mm
01:10 AM 50.8°F10.4°C 49.7°F9.8°C 96% 5.8 mph W9.3 kmh W 10.4 mph16.7 kmh 29.69 in1005.4 mb - 0.00 in0.0 mm 0.01 in0.3 mm
01:00 AM 50.9°F10.5°C 49.8°F9.9°C 96% 4.6 mph WSW7.4 kmh WSW 8.1 mph13.0 kmh 29.69 in1005.4 mb - 0.00 in0.0 mm 0.01 in0.3 mm
12:50 AM 50.9°F10.5°C 49.8°F9.9°C 96% 6.9 mph WSW11.1 kmh WSW 9.2 mph14.8 kmh 29.69 in1005.4 mb - 0.00 in0.0 mm 0.01 in0.3 mm
12:40 AM 51.0°F10.6°C 49.9°F9.9°C 96% 5.8 mph WSW9.3 kmh WSW 9.2 mph14.8 kmh 29.69 in1005.4 mb - 0.01 in0.3 mm 0.01 in0.3 mm